• Join FlightAware (Why Join?)
  • Login
  • US Flag 
10:46PM EDT


 

Airport Tracker/Info


-or-


 

Live Flight TrackerFlight Track Log ✈ EGF2882 ✈ 19-May-2012 ✈ KCVG - KDFW

Flight Track Log - Related Links

Times and Time Zones

All times are in EDT time to prevent confusion due to time zone crossing. See the EGF2882 flight status page for this flight to view local times or setup timezone preferences in your user account.

Time Position Orientation Groundspeed Altitude Reporting Facility
EDT Latitude Longitude Course Direction KTS MPH feet Rate Location/Type
08:50AM 38.9938 -84.6667 18° North  Level FlightAware Approximate
08:50AM 39.0333 -84.6500 198° South 166 191 1,300  Level Cincinnati TRACON
08:55AM 38.7206 -84.7786 213° Southwest 298 343 11,500 1,920 Climbing Indianapolis Center
08:56AM 38.6386 -84.8464 214° Southwest 314 361 13,100 1,740 Climbing Indianapolis Center
08:57AM 38.5564 -84.9167 227° Southwest 340 391 15,000 1,800 Climbing Indianapolis Center
08:58AM 38.4908 -85.0058 241° Southwest 340 391 16,700 1,500 Climbing Indianapolis Center
08:59AM 38.4436 -85.1136 238° Southwest 353 406 18,000 1,200 Climbing Indianapolis Center
09:00AM 38.3983 -85.2053 241° Southwest 353 406 19,200 1,320 Climbing Indianapolis Center
09:01AM 38.3531 -85.3103 238° Southwest 348 400 20,700 1,500 Climbing Indianapolis Center
09:02AM 38.2972 -85.4253 238° Southwest 360 414 22,200 1,440 Climbing Indianapolis Center
09:03AM 38.2433 -85.5350 238° Southwest 366 421 23,600 1,440 Climbing Indianapolis Center
09:04AM 38.1869 -85.6497 238° Southwest 378 435 25,100 1,500 Climbing Indianapolis Center
09:05AM 38.1306 -85.7642 237° Southwest 385 443 26,600 1,380 Climbing Indianapolis Center
09:06AM 38.0722 -85.8786 239° Southwest 385 443 27,900 1,260 Climbing Indianapolis Center
09:07AM 38.0178 -85.9928 238° Southwest 385 443 29,200 1,200 Climbing Indianapolis Center
09:08AM 37.9611 -86.1069 239° Southwest 385 443 30,300 1,200 Climbing Indianapolis Center
09:09AM 37.8997 -86.2339 237° Southwest 385 443 31,600 2,820 Climbing Indianapolis Center
09:10AM 37.8408 -86.3475 239° Southwest 385 443 36,000 1,200 Climbing Indianapolis Center
09:11AM 37.7903 -86.4533 237° Southwest 385 443 34,000 -480 Descending Indianapolis Center
09:12AM 37.7267 -86.5767 239° Southwest 390 449 35,100 960 Climbing Indianapolis Center
09:13AM 37.6694 -86.6953 237° Southwest 390 449 36,000 420 Climbing Indianapolis Center
09:14AM 37.6100 -86.8106 253° West 390 449 36,000  Level Indianapolis Center
09:15AM 37.5767 -86.9481 265° West 396 456 36,000  Level Indianapolis Center
09:16AM 37.5661 -87.0969 266° West 410 472 36,000  Level Indianapolis Center
09:17AM 37.5572 -87.2486 257° West 434 499 36,000  Level Indianapolis Center
09:18AM 37.5372 -87.3600 236° Southwest 415 478 36,000  Level Memphis Center
09:19AM 37.4775 -87.4719 233° Southwest 391 450 36,000  Level Memphis Center
09:20AM 37.4092 -87.5867 236° Southwest 410 472 36,000  Level Memphis Center
09:21AM 37.3453 -87.7064 237° Southwest 421 484 36,000  Level Memphis Center
09:22AM 37.2753 -87.8442 231° Southwest 426 490 36,000  Level Memphis Center
09:23AM 37.2025 -87.9583 235° Southwest 431 496 36,000  Level Memphis Center
09:24AM 37.1381 -88.0750 237° Southwest 424 488 36,000  Level Memphis Center
09:25AM 37.0736 -88.1989 233° Southwest 424 488 36,000  Level Memphis Center
09:26AM 37.0047 -88.3150 234° Southwest 429 494 36,000  Level Memphis Center
09:27AM 36.9397 -88.4283 235° Southwest 424 488 36,000  Level Memphis Center
09:28AM 36.8728 -88.5467 234° Southwest 424 488 36,000  Level Memphis Center
09:29AM 36.8036 -88.6650 235° Southwest 424 488 36,000  Level Memphis Center
09:30AM 36.7364 -88.7828 235° Southwest 424 488 36,000  Level Memphis Center
09:31AM 36.6692 -88.9006 234° Southwest 424 488 36,000  Level Memphis Center
09:32AM 36.6017 -89.0156 234° Southwest 424 488 36,000  Level Memphis Center
09:33AM 36.5339 -89.1303 236° Southwest 424 488 36,000  Level Memphis Center
09:34AM 36.4664 -89.2525 232° Southwest 419 482 36,000  Level Memphis Center
09:35AM 36.3983 -89.3592 234° Southwest 419 482 36,000  Level Memphis Center
09:36AM 36.3244 -89.4864 234° Southwest 441 507 36,000  Level Memphis Center
09:37AM 36.2583 -89.5978 234° Southwest 433 498 36,000  Level Memphis Center
09:38AM 36.1922 -89.7089 233° Southwest 421 484 36,000  Level Memphis Center
09:39AM 36.1242 -89.8225 233° Southwest 415 478 36,000  Level Memphis Center
09:40AM 36.0578 -89.9333 234° Southwest 415 478 36,000  Level Memphis Center
09:41AM 35.9914 -90.0467 233° Southwest 415 478 36,000  Level Memphis Center
09:42AM 35.9250 -90.1569 234° Southwest 415 478 36,000  Level Memphis Center
09:43AM 35.8561 -90.2725 233° Southwest 415 478 36,000  Level Memphis Center
09:44AM 35.7875 -90.3853 234° Southwest 415 478 36,000  Level Memphis Center
09:45AM 35.7206 -90.4978 235° Southwest 415 478 36,000  Level Memphis Center
09:46AM 35.6622 -90.5997 233° Southwest 410 472 36,000  Level Memphis Center
09:47AM 35.5867 -90.7219 234° Southwest 410 472 36,000  Level Memphis Center
09:48AM 35.5175 -90.8392 233° Southwest 410 472 36,000  Level Memphis Center
09:49AM 35.4483 -90.9508 232° Southwest 416 479 36,000  Level Memphis Center
09:50AM 35.3789 -91.0600 233° Southwest 410 472 36,000  Level Memphis Center
09:51AM 35.3136 -91.1661 237° Southwest 410 472 36,000  Level Memphis Center
09:52AM 35.2544 -91.2775 245° Southwest 410 472 36,000  Level Memphis Center
09:53AM 35.2075 -91.3989 244° Southwest 405 466 36,000  Level Memphis Center
09:54AM 35.1583 -91.5228 243° Southwest 400 460 36,000  Level Memphis Center
09:55AM 35.1072 -91.6467 243° Southwest 405 466 36,000  Level Memphis Center
09:56AM 35.0578 -91.7675 245° Southwest 405 466 36,000  Level Memphis Center
09:57AM 35.0106 -91.8883 243° Southwest 405 466 36,000  Level Memphis Center
09:58AM 34.9611 -92.0042 242° Southwest 400 460 36,000  Level Memphis Center
09:59AM 34.9117 -92.1172 244° Southwest 393 452 36,000  Level Memphis Center
10:00AM 34.8683 -92.2275 243° Southwest 381 438 36,000  Level Memphis Center
10:01AM 34.8183 -92.3453 244° Southwest 381 438 36,000  Level Memphis Center
10:02AM 34.7706 -92.4656 243° Southwest 394 453 36,000  Level Memphis Center
10:03AM 34.7206 -92.5831 243° Southwest 394 453 36,000  Level Memphis Center
10:04AM 34.6703 -92.7006 242° Southwest 394 453 36,000  Level Memphis Center
10:05AM 34.6200 -92.8178 244° Southwest 394 453 36,000  Level Memphis Center
10:06AM 34.5719 -92.9350 242° Southwest 394 453 36,000  Level Memphis Center
10:07AM 34.5192 -93.0542 244° Southwest 394 453 36,000  Level Memphis Center
10:08AM 34.4708 -93.1736 242° Southwest 400 460 36,000  Level Memphis Center
10:09AM 34.4267 -93.2756 241° Southwest 400 460 36,000  Level Memphis Center
10:10AM 34.3761 -93.3869 246° West 394 453 36,000  Level Memphis Center
10:11AM 34.3489 -93.4594 246° West 386 444 36,000  Level Fort Worth Center
10:12AM 34.3067 -93.5744 251° West 381 438 36,000  Level Fort Worth Center
10:13AM 34.2708 -93.6992 249° West 386 444 36,000  Level Fort Worth Center
10:14AM 34.2306 -93.8239 250° West 393 452 36,000  Level Fort Worth Center
10:15AM 34.1942 -93.9436 250° West 393 452 36,000  Level Fort Worth Center
10:16AM 34.1558 -94.0681 250° West 393 452 36,000  Level Fort Worth Center
10:17AM 34.1194 -94.1872 250° West 393 452 36,000 -480 Level Fort Worth Center
10:18AM 34.0828 -94.3064 250° West 393 452 35,100 -1,200 Descending Fort Worth Center
10:19AM 34.0442 -94.4308 248° West 393 452 33,600 -1,500 Descending Fort Worth Center
10:20AM 34.0031 -94.5550 248° West 399 459 32,100 -1,500 Descending Fort Worth Center
10:21AM 33.9581 -94.6917 249° West 420 483 30,600 -1,500 Descending Fort Worth Center
10:22AM 33.9150 -94.8256 248° West 427 491 29,100 -1,500 Descending Fort Worth Center
10:23AM 33.8719 -94.9569 248° West 432 497 27,600 -1,560 Descending Fort Worth Center
10:24AM 33.8283 -95.0881 249° West 432 497 26,000 -1,500 Descending Fort Worth Center
10:25AM 33.7850 -95.2242 250° West 437 503 24,600 -1,020 Descending Fort Worth Center
10:26AM 33.7456 -95.3578 247° West 437 503 24,000 -300 Descending Fort Worth Center
10:27AM 33.6994 -95.4861 251° West 432 497 24,000 -180 Level Fort Worth Center
10:28AM 33.6617 -95.6192 248° West 432 497 23,700 -1,320 Descending Fort Worth Center
10:29AM 33.6178 -95.7522 248° West 432 497 21,400 -2,400 Descending Fort Worth Center
10:30AM 33.5756 -95.8803 248° West 427 491 19,000 -2,400 Descending Fort Worth Center
10:31AM 33.5331 -96.0056 247° West 419 482 16,600 -2,280 Descending Fort Worth Center
10:32AM 33.4947 -96.1156 255° West 405 466 14,500 -2,160 Descending Fort Worth Center
10:32AM 33.4731 -96.2119 247° West 351 404 12,800 -2,160 Descending FAA TRACON SMA TRACON (SMA)
10:33AM 33.4481 -96.2808 248° West 325 374 11,400 -1,380 Descending FAA TRACON SMA TRACON (SMA)
10:34AM 33.4264 -96.3467 245° Southwest 308 354 11,000 -300 Descending FAA TRACON SMA TRACON (SMA)
10:34AM 33.4056 -96.4008 228° Southwest 293 337 11,000  Level FAA TRACON SMA TRACON (SMA)
10:35AM 33.3678 -96.4503 222° Southwest 293 337 11,000  Level FAA TRACON SMA TRACON (SMA)
10:36AM 33.3261 -96.4950 247° West 291 335 11,000 -420 Level FAA TRACON SMA TRACON (SMA)
10:36AM 33.3069 -96.5483 258° West 287 330 10,500 -1,380 Descending FAA TRACON SMA TRACON (SMA)
10:37AM 33.2953 -96.6114 254° West 280 322 9,200 -1,440 Descending FAA TRACON SMA TRACON (SMA)
10:38AM 33.2806 -96.6711 254° West 276 318 8,600 -1,020 Descending FAA TRACON SMA TRACON (SMA)
10:38AM 33.2683 -96.7228 255° West 273 314 7,900 -1,020 Descending FAA TRACON SMA TRACON (SMA)
10:39AM 33.2550 -96.7842 254° West 267 307 7,300 -1,080 Descending FAA TRACON SMA TRACON (SMA)
10:40AM 33.2414 -96.8394 256° West 259 298 6,500 -1,020 Descending FAA TRACON SMA TRACON (SMA)
10:40AM 33.2306 -96.8906 251° West 247 284 6,000 -420 Descending FAA TRACON SMA TRACON (SMA)
10:41AM 33.2172 -96.9375 242° Southwest 226 260 6,000 -420 Level FAA TRACON SMA TRACON (SMA)
10:42AM 33.1972 -96.9831 207° Southwest 219 252 5,500 -900 Descending FAA TRACON SMA TRACON (SMA)
10:42AM 33.1672 -97.0014 207° Southwest 202 232 4,900 -960 Descending FAA TRACON SMA TRACON (SMA)
10:43AM 33.1353 -97.0206 207° Southwest 182 209 4,300 -900 Descending FAA TRACON SMA TRACON (SMA)